createdAt,value
2018-06-16T00:00:45.203Z,83.18
2018-06-16T00:01:45.213Z,82.79
2018-06-16T00:02:45.216Z,83.42
2018-06-16T00:03:45.220Z,83.71
2018-06-16T00:04:45.223Z,84.58
2018-06-16T00:05:45.228Z,83.71
2018-06-16T00:06:45.238Z,83.42
2018-06-16T00:07:45.242Z,83.91
2018-06-16T00:08:45.249Z,83.81
2018-06-16T00:09:45.252Z,83.91
2018-06-16T00:10:45.257Z,83.52
2018-06-16T00:11:45.263Z,82.89
2018-06-16T00:12:45.270Z,82.03
2018-06-16T00:13:45.328Z,82.37
2018-06-16T00:14:45.277Z,82.89
2018-06-16T00:15:45.284Z,82.12
2018-06-16T00:16:45.295Z,82.46
2018-06-16T00:17:45.295Z,82.65
2018-06-16T00:18:45.302Z,83.71
2018-06-16T00:19:45.303Z,83.14
2018-06-16T00:20:45.312Z,84.00
2018-06-16T00:21:45.319Z,84.63
2018-06-16T00:22:45.321Z,85.11
2018-06-16T00:23:45.327Z,85.39
2018-06-16T00:24:45.332Z,84.67
2018-06-16T00:25:45.335Z,85.49
2018-06-16T00:26:45.341Z,85.21
2018-06-16T00:27:45.352Z,84.67
2018-06-16T00:28:45.352Z,84.58
2018-06-16T00:29:45.357Z,83.14
2018-06-16T00:30:45.363Z,83.42
2018-06-16T00:31:45.370Z,82.85
2018-06-16T00:32:45.375Z,82.37
2018-06-16T00:33:45.379Z,83.33
2018-06-16T00:34:45.382Z,83.33
2018-06-16T00:35:45.387Z,83.52
2018-06-16T00:36:45.397Z,83.23
2018-06-16T00:37:45.402Z,83.33
2018-06-16T00:38:45.407Z,83.23
2018-06-16T00:39:45.413Z,83.61
2018-06-16T00:40:45.415Z,83.04
2018-06-16T00:41:45.421Z,83.33
2018-06-16T00:42:45.436Z,83.42
2018-06-16T00:43:45.431Z,83.91
2018-06-16T00:44:45.436Z,83.33
2018-06-16T00:45:45.437Z,84.44
2018-06-16T00:46:45.448Z,84.15
2018-06-16T00:47:45.451Z,84.25
2018-06-16T00:48:45.460Z,84.82
2018-06-16T00:49:45.458Z,85.49
2018-06-16T00:50:45.471Z,84.44
2018-06-16T00:51:45.472Z,83.42
2018-06-16T00:52:45.477Z,83.19
2018-06-16T00:53:45.479Z,84.25
2018-06-16T00:54:45.484Z,83.81
2018-06-16T00:55:45.490Z,83.42
2018-06-16T00:56:45.495Z,83.76
2018-06-16T00:57:45.504Z,83.33
2018-06-16T00:58:45.514Z,82.37
2018-06-16T00:59:45.510Z,82.18
2018-06-16T01:00:45.516Z,82.85
2018-06-16T01:01:45.518Z,83.14
2018-06-16T01:02:45.528Z,82.75
2018-06-16T01:03:45.531Z,83.19
2018-06-16T01:04:45.536Z,83.19
2018-06-16T01:05:45.541Z,84.72
2018-06-16T01:06:45.543Z,84.72
2018-06-16T01:07:45.554Z,84.63
2018-06-16T01:08:45.555Z,85.93
2018-06-16T01:09:45.558Z,84.44
2018-06-16T01:10:45.570Z,83.48
2018-06-16T01:11:45.573Z,84.15
2018-06-16T01:12:45.579Z,83.14
2018-06-16T01:13:45.582Z,83.00
2018-06-16T01:14:45.585Z,83.19
2018-06-16T01:15:45.591Z,84.44
2018-06-16T01:16:45.597Z,84.63
2018-06-16T01:17:45.601Z,85.30
2018-06-16T01:18:45.603Z,84.34
2018-06-16T01:21:17.292Z,83.14
2018-06-16T01:22:17.240Z,83.04
2018-06-16T01:23:17.251Z,84.05
2018-06-16T01:24:17.255Z,84.48
2018-06-16T01:25:17.262Z,83.48
2018-06-16T01:26:17.261Z,83.04
2018-06-16T01:27:17.264Z,82.62
2018-06-16T01:28:17.270Z,83.48
2018-06-16T01:29:17.280Z,83.09
2018-06-16T01:30:17.283Z,84.53
2018-06-16T01:31:17.285Z,83.67
2018-06-16T01:32:17.291Z,83.23
2018-06-16T01:33:17.301Z,83.14
2018-06-16T01:34:17.302Z,83.00
2018-06-16T01:35:17.304Z,83.95
2018-06-16T01:36:17.315Z,83.29
2018-06-16T01:37:17.320Z,84.15
2018-06-16T01:38:17.321Z,84.53
2018-06-16T01:39:17.325Z,83.38
2018-06-16T01:40:17.332Z,83.42
2018-06-16T01:41:17.337Z,82.85
2018-06-16T01:42:17.344Z,82.62
2018-06-16T01:43:17.346Z,83.67
2018-06-16T01:44:17.350Z,83.67
2018-06-16T01:45:17.357Z,83.19
2018-06-16T01:46:17.361Z,83.29
2018-06-16T01:47:17.371Z,82.65
2018-06-16T01:48:17.369Z,81.89
2018-06-16T01:49:17.375Z,81.75
2018-06-16T01:50:17.382Z,82.37
2018-06-16T01:51:17.387Z,81.89
2018-06-16T01:52:17.393Z,81.60
2018-06-16T01:53:17.396Z,82.23
2018-06-16T01:54:17.397Z,82.52
2018-06-16T01:55:17.403Z,82.81
2018-06-16T01:56:17.415Z,83.00
2018-06-16T01:57:17.416Z,83.48
2018-06-16T01:58:17.418Z,83.29
2018-06-16T01:59:17.427Z,83.29
2018-06-16T02:00:17.428Z,83.92
2018-06-16T02:01:17.432Z,83.58
2018-06-16T02:02:17.436Z,83.48
2018-06-16T02:03:17.441Z,83.63
2018-06-16T02:04:17.448Z,83.67
2018-06-16T02:05:17.454Z,83.38
2018-06-16T02:06:17.457Z,84.30
2018-06-16T02:07:17.460Z,84.58
2018-06-16T02:08:17.469Z,84.49
2018-06-16T02:09:17.469Z,83.67
2018-06-16T02:10:17.475Z,84.88
2018-06-16T02:11:17.481Z,84.39
2018-06-16T02:12:17.484Z,84.39
2018-06-16T02:13:17.491Z,85.25
2018-06-16T02:14:17.492Z,85.25
2018-06-16T02:15:17.503Z,85.54
2018-06-16T02:16:17.502Z,84.68
2018-06-16T02:17:17.508Z,84.39
2018-06-16T02:18:17.511Z,83.48
2018-06-16T02:19:17.517Z,83.29
2018-06-16T02:20:17.529Z,82.52
2018-06-16T02:21:17.529Z,82.81
2018-06-16T02:22:17.530Z,83.09
2018-06-16T02:23:17.535Z,83.15
2018-06-16T02:24:17.542Z,83.72
2018-06-16T02:25:17.553Z,83.63
2018-06-16T02:26:17.550Z,83.63
2018-06-16T02:27:17.554Z,84.78
2018-06-16T02:28:17.558Z,85.45
2018-06-16T02:29:17.561Z,84.97
2018-06-16T02:30:17.570Z,83.92
2018-06-16T02:31:17.573Z,83.72
2018-06-16T02:32:17.579Z,83.34
2018-06-16T02:33:17.583Z,83.34
2018-06-16T02:34:17.589Z,82.71
2018-06-16T02:35:17.590Z,82.19
2018-06-16T02:36:17.606Z,83.34
2018-06-16T02:37:17.598Z,83.15
2018-06-16T02:38:17.605Z,83.82
2018-06-16T02:39:17.609Z,82.04
2018-06-16T02:40:17.613Z,82.23
2018-06-16T02:41:17.625Z,83.15
2018-06-16T02:42:17.622Z,83.53
2018-06-16T02:43:17.627Z,83.72
2018-06-16T02:44:17.629Z,83.92
2018-06-16T02:45:17.640Z,83.82
2018-06-16T02:46:17.641Z,82.96
2018-06-16T02:47:17.644Z,83.53
2018-06-16T02:48:17.650Z,84.20
2018-06-16T02:49:17.655Z,84.49
2018-06-16T02:50:17.677Z,83.72
2018-06-16T02:51:17.662Z,82.76
2018-06-16T02:52:17.667Z,83.05
2018-06-16T02:53:17.671Z,83.63
2018-06-16T02:54:17.683Z,84.30
2018-06-16T02:55:17.683Z,83.82
2018-06-16T02:56:17.687Z,84.01
2018-06-16T02:57:17.690Z,84.58
2018-06-16T02:58:17.699Z,83.72
2018-06-16T02:59:17.701Z,82.86
2018-06-16T03:00:17.704Z,82.62
2018-06-16T03:01:17.711Z,82.42
2018-06-16T03:02:17.715Z,82.04
2018-06-16T03:03:17.737Z,82.04
2018-06-16T03:04:17.723Z,82.96
2018-06-16T03:05:17.734Z,82.96
2018-06-16T03:06:17.735Z,83.44
2018-06-16T03:07:17.735Z,83.44
2018-06-16T03:08:17.742Z,82.67
2018-06-16T03:09:17.745Z,82.76
2018-06-16T03:10:17.757Z,83.25
2018-06-16T03:11:17.755Z,82.32
2018-06-16T03:12:17.761Z,81.85
2018-06-16T03:13:17.761Z,81.66
2018-06-16T03:14:17.771Z,81.85
2018-06-16T03:15:17.773Z,81.85
2018-06-16T03:16:17.777Z,82.32
2018-06-16T03:17:17.783Z,82.67
2018-06-16T03:18:17.803Z,82.67
2018-06-16T03:19:17.789Z,82.76
2018-06-16T03:20:17.794Z,82.76
2018-06-16T03:21:17.798Z,82.32
2018-06-16T03:22:17.819Z,81.95
2018-06-16T03:23:17.806Z,82.09
2018-06-16T03:24:17.812Z,82.00
2018-06-16T03:25:17.820Z,82.57
2018-06-16T03:26:17.819Z,83.15
2018-06-16T03:27:17.827Z,82.96
2018-06-16T03:28:17.830Z,82.96
2018-06-16T03:29:17.839Z,83.05
2018-06-16T03:30:17.843Z,82.19
2018-06-16T03:31:17.840Z,82.38
2018-06-16T03:32:17.846Z,82.19
2018-06-16T03:33:17.868Z,82.19
2018-06-16T03:34:17.861Z,82.38
2018-06-16T03:35:17.859Z,82.00
2018-06-16T03:36:17.871Z,82.19
2018-06-16T03:37:17.868Z,82.19
2018-06-16T03:38:17.875Z,82.76
2018-06-16T03:39:17.880Z,83.34
2018-06-16T03:40:17.881Z,82.96
2018-06-16T03:41:17.888Z,83.05
2018-06-16T03:42:17.891Z,84.01
2018-06-16T03:43:17.893Z,84.20
2018-06-16T03:44:17.899Z,84.20
2018-06-16T03:45:17.903Z,84.39
2018-06-16T03:46:17.909Z,83.25
2018-06-16T03:47:17.910Z,83.92
2018-06-16T03:48:17.920Z,83.25
2018-06-16T03:49:17.943Z,84.20
2018-06-16T03:50:17.925Z,83.53
2018-06-16T03:51:17.929Z,84.20
2018-06-16T03:52:17.935Z,84.58
2018-06-16T03:53:17.936Z,83.34
2018-06-16T03:54:17.956Z,83.25
2018-06-16T03:55:17.949Z,82.67
2018-06-16T03:56:17.956Z,83.44
2018-06-16T03:57:17.955Z,82.86
2018-06-16T03:58:17.960Z,82.96
2018-06-16T03:59:17.967Z,82.76
2018-06-16T04:00:17.969Z,82.62
2018-06-16T04:01:17.975Z,82.19
2018-06-16T04:02:17.981Z,82.32
2018-06-16T04:03:17.984Z,82.04
2018-06-16T04:04:17.987Z,82.86
2018-06-16T04:05:17.995Z,83.63
2018-06-16T04:06:18.015Z,82.71
2018-06-16T04:07:18.001Z,82.29
2018-06-16T04:08:18.005Z,83.34
2018-06-16T04:09:18.010Z,84.11
2018-06-16T04:10:18.015Z,83.92
2018-06-16T04:11:18.016Z,83.92
2018-06-16T04:12:18.023Z,83.72
2018-06-16T04:13:18.025Z,82.96
2018-06-16T04:14:18.031Z,83.38
2018-06-16T04:15:18.033Z,82.81
2018-06-16T04:16:18.043Z,83.09
2018-06-16T04:17:18.054Z,83.38
2018-06-16T04:18:18.056Z,82.42
2018-06-16T04:19:18.050Z,82.81
2018-06-16T04:20:18.056Z,82.81
2018-06-16T04:21:18.068Z,83.53
2018-06-16T04:22:18.067Z,83.92
2018-06-16T04:23:18.069Z,83.67
2018-06-16T04:24:18.074Z,84.30
2018-06-16T04:25:18.143Z,83.86
2018-06-16T04:26:18.085Z,82.81
2018-06-16T04:27:18.088Z,83.19
2018-06-16T04:28:18.094Z,83.86
2018-06-16T04:29:18.095Z,83.67
2018-06-16T04:30:18.101Z,84.20
2018-06-16T04:31:18.106Z,84.63
2018-06-16T04:32:18.114Z,84.15
2018-06-16T04:33:18.114Z,84.68
2018-06-16T04:34:18.122Z,85.88
2018-06-16T04:35:18.125Z,85.01
2018-06-16T04:36:18.135Z,85.30
2018-06-16T04:37:18.134Z,85.11
2018-06-16T04:38:18.136Z,85.01
2018-06-16T04:39:18.142Z,84.63
2018-06-16T04:40:18.146Z,84.63
2018-06-16T04:41:18.157Z,84.44
2018-06-16T04:42:18.157Z,84.34
2018-06-16T04:43:18.159Z,84.34
2018-06-16T04:44:18.166Z,84.25
2018-06-16T04:45:18.169Z,85.21
2018-06-16T04:46:18.176Z,85.97
2018-06-16T04:47:18.185Z,85.88
2018-06-16T04:48:18.188Z,85.39
2018-06-16T04:49:18.188Z,85.25
2018-06-16T04:50:18.196Z,84.77
2018-06-16T04:51:18.197Z,84.48
2018-06-16T04:52:18.199Z,84.58
2018-06-16T04:53:18.205Z,84.38
2018-06-16T04:54:18.212Z,84.77
2018-06-16T04:55:18.216Z,84.77
2018-06-16T04:56:18.220Z,85.25
2018-06-16T04:57:18.228Z,85.25
2018-06-16T04:58:18.231Z,84.38
2018-06-16T04:59:18.232Z,84.38
2018-06-16T05:00:18.238Z,84.19
2018-06-16T05:01:18.248Z,84.48
2018-06-16T05:02:18.245Z,84.19
2018-06-16T05:03:18.251Z,82.94
2018-06-16T05:04:18.257Z,84.09
2018-06-16T05:05:18.263Z,83.33
2018-06-16T05:06:18.267Z,83.71
2018-06-16T05:07:18.270Z,83.71
2018-06-16T05:08:18.276Z,83.94
2018-06-16T05:09:18.280Z,83.47
2018-06-16T05:10:18.286Z,83.65
2018-06-16T05:11:18.291Z,83.47
2018-06-16T05:12:18.297Z,82.89
2018-06-16T05:13:18.302Z,82.70
2018-06-16T05:14:18.305Z,83.37
2018-06-16T05:15:18.309Z,83.18
2018-06-16T05:16:18.317Z,81.93
2018-06-16T05:17:18.320Z,82.31
2018-06-16T05:18:18.326Z,82.03
2018-06-16T05:19:18.328Z,82.31
2018-06-16T05:20:18.336Z,82.45
2018-06-16T05:21:18.339Z,81.87
2018-06-16T05:22:18.343Z,81.97
2018-06-16T05:23:18.351Z,82.07
2018-06-16T05:24:18.355Z,82.84
2018-06-16T05:25:18.387Z,83.22
2018-06-16T05:26:18.364Z,82.93
2018-06-16T05:27:18.366Z,82.07
2018-06-16T05:28:18.373Z,82.93
2018-06-16T05:29:18.380Z,82.93
2018-06-16T05:30:18.389Z,82.45
2018-06-16T05:31:18.392Z,81.01
2018-06-16T05:32:18.395Z,81.01
2018-06-16T05:33:18.400Z,81.30
2018-06-16T05:34:18.405Z,81.97
2018-06-16T05:35:18.411Z,81.97
2018-06-16T05:36:18.422Z,81.40
2018-06-16T05:37:18.419Z,81.59
2018-06-16T05:38:18.428Z,81.59
2018-06-16T05:39:18.428Z,81.05
2018-06-16T05:40:18.435Z,80.28
2018-06-16T05:41:18.442Z,80.28
2018-06-16T05:42:18.452Z,79.52
2018-06-16T05:43:18.453Z,79.13
2018-06-16T05:44:18.453Z,78.65
2018-06-16T05:45:18.470Z,78.27
2018-06-16T05:46:18.468Z,79.32
2018-06-16T05:47:18.472Z,80.19
2018-06-16T05:48:18.476Z,81.05
2018-06-16T05:49:18.480Z,79.03
2018-06-16T05:50:18.489Z,79.32
2018-06-16T05:51:18.492Z,78.55
2018-06-16T05:52:18.499Z,78.27
2018-06-16T05:53:18.503Z,77.78
2018-06-16T05:54:18.511Z,77.83
2018-06-16T05:55:18.514Z,77.69
2018-06-16T05:56:18.518Z,77.59
2018-06-16T05:57:18.523Z,77.63
2018-06-16T05:58:18.534Z,76.77
2018-06-16T05:59:18.536Z,78.21
2018-06-16T06:00:18.539Z,77.25
2018-06-16T06:01:18.548Z,77.83
2018-06-16T06:02:18.554Z,78.40
2018-06-16T06:03:18.564Z,76.96
2018-06-16T06:04:18.563Z,76.19
2018-06-16T06:05:18.579Z,76.09
2018-06-16T06:06:18.580Z,78.06
2018-06-16T06:07:18.579Z,76.42
2018-06-16T06:08:18.584Z,76.23
2018-06-16T06:09:18.597Z,75.46
2018-06-16T06:10:18.616Z,74.79
2018-06-16T06:11:18.604Z,76.04
2018-06-16T06:12:18.613Z,75.84
2018-06-16T06:13:18.617Z,76.32
2018-06-16T06:14:18.626Z,76.71
2018-06-16T06:15:18.645Z,76.61
2018-06-16T06:16:18.639Z,75.94
2018-06-16T06:17:18.642Z,76.52
2018-06-16T06:18:18.646Z,76.46
2018-06-16T06:19:18.651Z,75.02
2018-06-16T06:20:18.656Z,74.54
2018-06-16T06:21:18.662Z,74.73
2018-06-16T06:22:18.671Z,75.31
2018-06-16T06:23:18.676Z,74.54
2018-06-16T06:24:18.682Z,74.05
2018-06-16T06:25:18.691Z,73.47
2018-06-16T06:26:18.693Z,73.96
2018-06-16T06:27:18.697Z,72.80
2018-06-16T06:28:18.705Z,72.13
2018-06-16T06:29:18.710Z,71.55
2018-06-16T06:30:18.717Z,71.97
2018-06-16T06:31:18.724Z,71.08
2018-06-16T06:32:18.731Z,71.65
2018-06-16T06:33:18.741Z,71.26
2018-06-16T06:34:18.744Z,71.36
2018-06-16T06:35:18.750Z,71.01
2018-06-16T06:36:18.755Z,71.20
2018-06-16T06:37:18.761Z,71.97
2018-06-16T06:38:18.768Z,71.88
2018-06-16T06:39:18.774Z,71.78
2018-06-16T06:40:18.780Z,71.78
2018-06-16T06:41:18.787Z,71.97
2018-06-16T06:42:18.902Z,72.94
2018-06-16T06:43:18.800Z,71.88
2018-06-16T06:44:18.809Z,72.11
2018-06-16T06:45:18.812Z,71.97
2018-06-16T06:46:18.820Z,72.20
2018-06-16T06:47:18.826Z,71.88
2018-06-16T06:48:18.831Z,72.26
2018-06-16T06:49:18.840Z,71.91
2018-06-16T06:50:18.851Z,71.24
2018-06-16T06:51:18.850Z,71.14
2018-06-16T06:52:18.964Z,70.95
2018-06-16T06:53:18.865Z,70.66
2018-06-16T06:54:18.871Z,69.79
2018-06-16T06:55:18.878Z,69.41
2018-06-16T06:56:18.890Z,69.22
2018-06-16T06:57:18.891Z,69.22
2018-06-16T06:58:18.898Z,69.60
2018-06-16T06:59:18.906Z,68.96
2018-06-16T07:00:18.917Z,68.87
2018-06-16T07:01:18.918Z,68.96
2018-06-16T07:02:18.925Z,68.87
2018-06-16T07:03:18.940Z,67.81
2018-06-16T07:04:18.937Z,67.81
2018-06-16T07:05:18.945Z,68.87
2018-06-16T07:06:18.955Z,67.61
2018-06-16T07:07:18.959Z,68.13
2018-06-16T07:08:18.970Z,67.81
2018-06-16T07:09:18.979Z,67.84
2018-06-16T07:10:18.980Z,67.84
2018-06-16T07:11:18.988Z,67.65
2018-06-16T07:12:18.994Z,67.16
2018-06-16T07:13:19.001Z,66.97
2018-06-16T07:14:19.017Z,66.20
2018-06-16T07:15:19.015Z,66.39
2018-06-16T07:16:19.023Z,66.59
2018-06-16T07:17:19.031Z,66.78
2018-06-16T07:18:19.037Z,67.36
2018-06-16T07:19:19.045Z,67.55
2018-06-16T07:20:19.056Z,67.94
2018-06-16T07:21:19.059Z,68.04
2018-06-16T07:22:19.070Z,68.71
2018-06-16T07:23:19.071Z,68.74
2018-06-16T07:24:19.081Z,68.93
2018-06-16T07:25:19.087Z,67.00
2018-06-16T07:26:19.095Z,65.95
2018-06-16T07:27:19.104Z,67.30
2018-06-16T07:28:19.110Z,66.82
2018-06-16T07:29:19.140Z,67.58
2018-06-16T07:30:19.125Z,68.84
2018-06-16T07:31:19.132Z,67.97
2018-06-16T07:32:19.141Z,68.16
2018-06-16T07:33:19.147Z,68.07
2018-06-16T07:34:19.159Z,65.95
2018-06-16T07:35:19.169Z,65.75
2018-06-16T07:36:19.171Z,65.17
2018-06-16T07:37:19.194Z,65.17
2018-06-16T07:38:19.187Z,65.20
2018-06-16T07:39:19.212Z,64.72
2018-06-16T07:40:19.199Z,63.28
2018-06-16T07:41:19.211Z,63.37
2018-06-16T07:42:19.223Z,63.18
2018-06-16T07:43:19.227Z,63.28
2018-06-16T07:44:19.231Z,62.60
2018-06-16T07:45:19.241Z,62.02
2018-06-16T07:46:19.248Z,62.05
2018-06-16T07:47:19.256Z,62.60
2018-06-16T07:48:19.267Z,61.96
2018-06-16T07:49:19.289Z,61.93
2018-06-16T07:50:19.279Z,61.93
2018-06-16T07:51:19.287Z,62.44
2018-06-16T07:52:19.294Z,62.34
2018-06-16T07:53:19.303Z,61.47
2018-06-16T07:54:19.309Z,62.05
2018-06-16T07:55:19.320Z,62.25
2018-06-16T07:56:19.325Z,62.15
2018-06-16T07:57:19.333Z,62.44
2018-06-16T07:58:19.346Z,63.50
2018-06-16T07:59:19.351Z,63.70
2018-06-16T08:00:19.363Z,63.43
2018-06-16T08:01:19.367Z,63.73
2018-06-16T08:02:19.375Z,63.73
2018-06-16T08:03:19.382Z,64.50
2018-06-16T08:04:19.395Z,64.11
2018-06-16T08:05:19.403Z,61.80
2018-06-16T08:06:19.409Z,61.60
2018-06-16T08:07:19.417Z,61.51
2018-06-16T08:08:19.423Z,62.47
2018-06-16T08:09:19.432Z,61.99
2018-06-16T08:10:19.441Z,61.41
2018-06-16T08:11:19.448Z,61.70
2018-06-16T08:12:19.457Z,61.41
2018-06-16T08:13:19.463Z,61.70
2018-06-16T08:14:19.473Z,61.34
2018-06-16T08:15:19.487Z,61.80
2018-06-16T08:16:19.491Z,61.51
2018-06-16T08:17:19.503Z,61.34
2018-06-16T08:18:19.512Z,61.15
2018-06-16T08:19:19.518Z,59.89
2018-06-16T08:20:19.528Z,59.02
2018-06-16T08:21:19.533Z,58.90
2018-06-16T08:22:19.541Z,57.74
2018-06-16T08:23:19.550Z,57.84
2018-06-16T08:24:19.560Z,57.84
2018-06-16T08:25:19.572Z,57.74
2018-06-16T08:26:19.577Z,56.99
2018-06-16T08:27:19.594Z,57.48
2018-06-16T08:28:19.593Z,58.06
2018-06-16T08:29:19.610Z,58.73
2018-06-16T08:30:19.614Z,59.15
2018-06-16T08:31:19.620Z,59.53
2018-06-16T08:32:19.627Z,59.02
2018-06-16T08:33:19.643Z,58.95
2018-06-16T08:34:19.650Z,56.54
2018-06-16T08:35:19.662Z,54.99
2018-06-16T08:36:19.666Z,54.03
2018-06-16T08:37:19.673Z,53.64
2018-06-16T08:38:19.687Z,52.87
2018-06-16T08:39:19.696Z,54.71
2018-06-16T08:40:19.698Z,53.45
2018-06-16T08:41:19.713Z,52.39
2018-06-16T08:42:19.722Z,54.13
2018-06-16T08:43:19.770Z,54.41
2018-06-16T08:44:19.739Z,53.47
2018-06-16T08:45:19.749Z,54.25
2018-06-16T08:46:19.754Z,54.25
2018-06-16T08:47:19.764Z,53.86
2018-06-16T08:48:19.771Z,53.69
2018-06-16T08:49:19.781Z,53.31
2018-06-16T08:50:19.789Z,53.69
2018-06-16T08:51:19.798Z,53.59
2018-06-16T08:52:19.807Z,53.50
2018-06-16T08:53:19.815Z,51.37
2018-06-16T08:54:19.829Z,49.60
2018-06-16T08:55:19.856Z,50.26
2018-06-16T08:56:19.844Z,50.57
2018-06-16T08:57:19.855Z,51.15
2018-06-16T08:58:19.865Z,50.76
2018-06-16T08:59:19.885Z,50.48
2018-06-16T09:00:19.891Z,49.60
2018-06-16T09:01:19.899Z,51.93
2018-06-16T09:02:19.901Z,51.25
2018-06-16T09:03:19.909Z,50.96
2018-06-16T09:04:19.919Z,51.37
2018-06-16T09:05:19.927Z,52.63
2018-06-16T09:06:19.938Z,52.73
2018-06-16T09:07:19.947Z,52.53
2018-06-16T09:08:19.958Z,52.63
2018-06-16T09:09:19.979Z,51.08
2018-06-16T09:10:19.976Z,52.53
2018-06-16T09:11:19.987Z,51.86
2018-06-16T09:12:19.994Z,51.95
2018-06-16T09:13:20.009Z,50.31
2018-06-16T09:14:20.017Z,50.02
2018-06-16T09:15:20.025Z,51.95
2018-06-16T09:16:20.036Z,51.37
2018-06-16T09:17:20.080Z,48.66
2018-06-16T09:18:20.052Z,46.34
2018-06-16T09:19:20.067Z,48.20
2018-06-16T09:20:20.070Z,48.69
2018-06-16T09:21:20.089Z,47.04
2018-06-16T09:22:20.091Z,46.34
2018-06-16T09:23:20.103Z,47.33
2018-06-16T09:24:20.110Z,47.91
2018-06-16T09:25:20.120Z,49.07
2018-06-16T09:26:20.128Z,48.97
2018-06-16T09:27:20.140Z,47.81
2018-06-16T09:28:20.149Z,49.00
2018-06-16T09:29:20.158Z,47.64
2018-06-16T09:30:20.175Z,49.75
2018-06-16T09:31:20.180Z,51.30
2018-06-16T09:32:20.189Z,51.20
2018-06-16T09:33:20.198Z,50.16
2018-06-16T09:34:20.216Z,51.30
2018-06-16T09:35:20.220Z,48.32
2018-06-16T09:36:20.345Z,52.49
2018-06-16T09:37:20.248Z,50.84
2018-06-16T09:38:20.248Z,50.26
2018-06-16T09:39:20.257Z,49.49
2018-06-16T09:40:20.270Z,50.65
2018-06-16T09:41:20.278Z,51.52
2018-06-16T09:42:20.290Z,50.35
2018-06-16T09:43:20.300Z,49.58
2018-06-16T09:44:20.312Z,49.37
2018-06-16T09:45:20.327Z,49.56
2018-06-16T09:46:20.333Z,50.14
2018-06-16T09:47:20.342Z,49.97
2018-06-16T09:48:20.354Z,49.97
2018-06-16T09:49:20.368Z,49.51
2018-06-16T09:50:20.378Z,48.71
2018-06-16T09:51:20.382Z,48.35
2018-06-16T09:52:20.392Z,48.06
2018-06-16T09:53:20.407Z,49.70
2018-06-16T09:54:20.420Z,48.83
2018-06-16T09:55:20.428Z,48.64
2018-06-16T09:56:20.436Z,49.22
2018-06-16T09:57:20.448Z,49.41
2018-06-16T09:58:20.456Z,48.64
2018-06-16T09:59:20.468Z,47.69
2018-06-16T10:00:20.477Z,47.38
2018-06-16T10:01:20.486Z,48.57
2018-06-16T10:02:20.501Z,48.06
2018-06-16T10:03:20.546Z,47.69
2018-06-16T10:04:20.524Z,47.89
2018-06-16T10:05:20.530Z,48.27
2018-06-16T10:06:20.550Z,45.75
2018-06-16T10:07:20.554Z,46.43
2018-06-16T10:08:20.565Z,46.92
2018-06-16T10:09:20.637Z,47.11
2018-06-16T10:10:20.586Z,46.33
2018-06-16T10:11:20.598Z,46.53
2018-06-16T10:12:20.606Z,46.41
2018-06-16T10:13:20.627Z,47.02
2018-06-16T10:14:20.626Z,46.62
2018-06-16T10:15:20.644Z,45.34
2018-06-16T10:16:20.649Z,46.33
2018-06-16T10:17:20.657Z,46.82
2018-06-16T10:18:20.676Z,46.92
2018-06-16T10:19:20.684Z,47.50
2018-06-16T10:20:20.693Z,47.69
2018-06-16T10:21:20.763Z,47.02
2018-06-16T10:22:20.716Z,46.26
2018-06-16T10:23:20.725Z,47.13
2018-06-16T10:24:20.741Z,48.30
2018-06-16T10:25:20.751Z,47.72
2018-06-16T10:26:20.766Z,46.16
2018-06-16T10:27:20.772Z,44.51
2018-06-16T10:28:20.781Z,44.78
2018-06-16T10:29:20.792Z,44.20
2018-06-16T10:30:20.805Z,44.01
2018-06-16T10:31:20.811Z,44.01
2018-06-16T10:32:20.824Z,43.82
2018-06-16T10:33:20.892Z,43.02
2018-06-16T10:34:20.851Z,44.76
2018-06-16T10:35:20.862Z,46.33
2018-06-16T10:36:20.892Z,44.18
2018-06-16T10:37:20.881Z,42.94
2018-06-16T10:38:20.896Z,42.36
2018-06-16T10:39:20.907Z,43.31
2018-06-16T10:40:20.914Z,43.91
2018-06-16T10:41:20.928Z,44.01
2018-06-16T10:42:20.939Z,44.49
2018-06-16T10:43:20.955Z,45.56
2018-06-16T10:44:20.960Z,46.53
2018-06-16T10:45:20.975Z,45.78
2018-06-16T10:46:20.982Z,46.16
2018-06-16T10:47:20.996Z,47.23
2018-06-16T10:48:21.005Z,47.64
2018-06-16T10:49:21.015Z,46.94
2018-06-16T10:50:21.036Z,47.45
2018-06-16T10:51:21.038Z,45.48
2018-06-16T10:52:21.060Z,44.24
2018-06-16T10:53:21.077Z,44.23
2018-06-16T10:54:21.073Z,44.51
2018-06-16T10:55:21.086Z,44.03
2018-06-16T10:56:21.096Z,44.32
2018-06-16T10:57:21.108Z,43.26
2018-06-16T10:58:21.120Z,44.03
2018-06-16T10:59:21.132Z,44.44
2018-06-16T11:00:21.172Z,41.61
2018-06-16T11:01:21.191Z,41.12
2018-06-16T11:02:21.166Z,41.12
2018-06-16T11:03:21.175Z,42.48
2018-06-16T11:04:21.188Z,42.99
2018-06-16T11:05:21.216Z,42.89
2018-06-16T11:06:21.225Z,43.37
2018-06-16T11:07:21.220Z,42.69
2018-06-16T11:08:21.235Z,43.18
2018-06-16T11:09:21.273Z,44.15
2018-06-16T11:10:21.257Z,44.73
2018-06-16T11:11:21.272Z,44.83
2018-06-16T11:12:21.285Z,44.27
2018-06-16T11:13:21.296Z,44.15
2018-06-16T11:14:21.304Z,45.02
2018-06-16T11:15:21.316Z,44.27
2018-06-16T11:16:21.334Z,41.14
2018-06-16T11:17:21.340Z,42.21
2018-06-16T11:18:21.350Z,42.89
2018-06-16T11:19:21.366Z,43.59
2018-06-16T11:20:21.382Z,43.59
2018-06-16T11:21:21.385Z,43.98
2018-06-16T11:22:21.398Z,41.45
2018-06-16T11:23:21.413Z,43.30
2018-06-16T11:24:21.421Z,44.37
2018-06-16T11:25:21.437Z,43.30
2018-06-16T11:26:21.447Z,42.30
2018-06-16T11:27:21.460Z,42.61
2018-06-16T11:28:21.469Z,42.89
2018-06-16T11:29:21.485Z,42.61
2018-06-16T11:30:21.541Z,42.81
2018-06-16T11:31:21.518Z,42.91
2018-06-16T11:32:21.517Z,42.71
2018-06-16T11:33:21.527Z,40.36
2018-06-16T11:34:21.549Z,40.08
2018-06-16T11:35:21.573Z,40.34
2018-06-16T11:36:21.604Z,39.28
2018-06-16T11:37:21.666Z,39.78
2018-06-16T11:38:21.632Z,38.62
2018-06-16T11:39:21.614Z,38.15
2018-06-16T11:40:21.612Z,41.36
2018-06-16T11:41:21.637Z,38.32
2018-06-16T11:42:21.638Z,38.13
2018-06-16T11:43:21.678Z,38.83
2018-06-16T11:44:21.692Z,42.33
2018-06-16T11:45:21.673Z,42.81
2018-06-16T11:46:21.694Z,40.77
2018-06-16T11:47:21.696Z,41.26
2018-06-16T11:48:21.712Z,39.90
2018-06-16T11:49:21.728Z,42.02
2018-06-16T11:50:21.738Z,41.74
2018-06-16T11:51:21.747Z,40.48
2018-06-16T11:52:21.763Z,40.00
2018-06-16T11:53:21.789Z,39.51
2018-06-16T11:54:21.782Z,39.61
2018-06-16T11:55:21.811Z,39.32
2018-06-16T11:56:21.805Z,42.81
2018-06-16T11:57:21.816Z,43.12
2018-06-16T11:58:21.831Z,41.77
2018-06-16T11:59:21.844Z,41.64
2018-06-16T12:00:21.864Z,41.86
2018-06-16T12:01:21.874Z,43.12
2018-06-16T12:02:21.881Z,41.47
2018-06-16T12:03:21.895Z,40.89
2018-06-16T12:04:21.912Z,39.80
2018-06-16T12:05:21.939Z,39.70
2018-06-16T12:06:21.924Z,39.70
2018-06-16T12:07:21.938Z,38.54
2018-06-16T12:08:21.948Z,39.04
2018-06-16T12:09:21.962Z,43.98
2018-06-16T12:10:22.086Z,42.54
2018-06-16T12:11:21.988Z,41.18
2018-06-16T12:12:22.014Z,39.61
2018-06-16T12:13:22.010Z,39.14
2018-06-16T12:14:22.025Z,40.39
2018-06-16T12:15:22.035Z,40.19
2018-06-16T12:16:22.053Z,40.11
2018-06-16T12:17:22.064Z,39.92
2018-06-16T12:18:22.071Z,39.62
2018-06-16T12:19:22.096Z,40.21
2018-06-16T12:20:22.106Z,40.79
2018-06-16T12:21:22.112Z,40.21
2018-06-16T12:22:22.125Z,40.11
2018-06-16T12:23:22.139Z,40.21
2018-06-16T12:24:22.149Z,38.37
2018-06-16T12:25:22.162Z,39.43
2018-06-16T12:26:22.179Z,38.85
2018-06-16T12:27:22.237Z,39.53
2018-06-16T12:28:22.197Z,38.56
2018-06-16T12:29:22.210Z,38.56
2018-06-16T12:30:22.246Z,39.04
2018-06-16T12:31:22.232Z,38.95
2018-06-16T12:32:22.247Z,39.14
2018-06-16T12:33:22.257Z,38.95
2018-06-16T12:34:22.299Z,39.62
2018-06-16T12:35:22.288Z,39.53
2018-06-16T12:36:22.302Z,39.04
2018-06-16T12:37:22.333Z,38.27
2018-06-16T12:38:22.325Z,39.62
2018-06-16T12:39:22.336Z,36.91
2018-06-16T12:40:22.344Z,38.27
2018-06-16T12:41:22.383Z,41.47
2018-06-16T12:42:22.385Z,39.72
2018-06-16T12:43:22.384Z,40.41
2018-06-16T12:44:22.396Z,39.24
2018-06-16T12:45:22.403Z,38.95
2018-06-16T12:46:22.420Z,40.69
2018-06-16T12:47:22.429Z,39.34
2018-06-16T12:48:22.444Z,37.49
2018-06-16T12:49:22.463Z,37.30
2018-06-16T12:50:22.471Z,38.19
2018-06-16T12:51:22.477Z,39.16
2018-06-16T12:52:22.490Z,40.13
2018-06-16T12:53:22.505Z,40.91
2018-06-16T12:54:22.518Z,38.27